Bemidji, Minnesota
Current Conditions -  °F | °C
As of 12:53 AM on Tuesday 21 Oct 2014 (Local Time) from KBJI Reporting Station
Clear Clear  
Wind Chill: 36°   Ceiling: Unl
Heat Index: 36°   Visibility: 10mi
Dew Point: 35°   Wind: 3mph
Humidity: 98%   Direction: 130°SE
Pressure: 30.1"   Gusts: NA
Location:  47.47°N, 94.88°W
Report Text: KBJI 210553Z AUTO 13003KT 10SM CLR 02/02 A3010 RMK AO2 T00210018
Loading
Personal Weather Stations






























Interactive Weather Map
Tropical Storm Tracking
New forecast layout! Learn more

10-Day Weather Forecast

Advertisements
Track Severe Weather on mobile